Time;durP1;ratioP1;P1;durP2;ratioP2;P2;SDS_P1;SDS_P2;PMS_P1;PMS_P2;Temp;Humidity;BMP_temperature;BMP_pressure;BME280_temperature;BME280_humidity;BME280_pressure;Samples;Min_cycle;Max_cycle;Signal;HPM_P1;HPM_P2
2022/12/21 00:01:39;;;;;;;459.40;63.92;;;7.40;99.90;;;;;;5030022;28;20048;-67
2022/12/21 00:04:05;;;;;;;545.85;72.65;;;7.30;99.90;;;;;;5028233;28;20049;-67
2022/12/21 00:06:33;;;;;;;608.00;77.63;;;7.30;99.90;;;;;;5028873;28;20120;-67
2022/12/21 00:09:01;;;;;;;564.17;69.15;;;7.30;99.90;;;;;;5029900;28;20121;-67
2022/12/21 00:11:29;;;;;;;480.75;66.07;;;7.30;99.90;;;;;;5029974;28;20041;-67
2022/12/21 00:13:57;;;;;;;499.60;69.93;;;7.30;99.90;;;;;;5029463;28;20053;-68
2022/12/21 00:16:26;;;;;;;366.63;53.17;;;7.20;99.90;;;;;;5028218;28;20042;-68
2022/12/21 00:18:52;;;;;;;217.48;37.30;;;7.20;99.90;;;;;;5029360;28;20048;-68
2022/12/21 00:21:24;;;;;;;342.58;50.90;;;7.20;99.90;;;;;;5029681;28;20033;-67
2022/12/21 00:23:51;;;;;;;332.17;46.17;;;7.20;99.90;;;;;;5029405;28;20057;-67
2022/12/21 00:26:20;;;;;;;445.67;55.83;;;7.20;99.90;;;;;;5028598;28;20034;-68
2022/12/21 00:28:47;;;;;;;353.75;48.50;;;7.20;99.90;;;;;;5012229;28;20033;-68
2022/12/21 00:31:19;;;;;;;123.82;26.88;;;7.20;99.90;;;;;;5028324;28;20111;-68
2022/12/21 00:33:46;;;;;;;116.45;27.10;;;7.10;99.90;;;;;;5029246;28;20044;-68
2022/12/21 00:36:14;;;;;;;115.20;27.80;;;7.10;99.90;;;;;;5028091;28;20131;-67
2022/12/21 00:38:41;;;;;;;419.60;60.95;;;7.10;99.90;;;;;;5028177;28;20527;-67
2022/12/21 00:41:10;;;;;;;253.48;39.15;;;7.00;99.90;;;;;;5029598;28;20037;-68
2022/12/21 00:43:38;;;;;;;235.13;39.13;;;7.00;99.90;;;;;;5029480;28;20037;-68
2022/12/21 00:46:05;;;;;;;142.52;28.58;;;7.00;99.90;;;;;;5029509;28;20475;-68
2022/12/21 00:48:33;;;;;;;104.22;25.33;;;6.90;99.90;;;;;;5029112;28;20037;-68
2022/12/21 00:51:06;;;;;;;146.25;32.00;;;6.90;99.90;;;;;;5024669;28;20042;-68
2022/12/21 00:53:33;;;;;;;256.27;38.60;;;6.90;99.90;;;;;;5027952;28;20037;-68
2022/12/21 00:56:00;;;;;;;97.43;24.13;;;6.80;99.90;;;;;;5028888;28;20057;-68
2022/12/21 00:58:29;;;;;;;165.52;30.70;;;6.80;99.90;;;;;;5028234;28;20041;-68
2022/12/21 01:00:57;;;;;;;425.30;51.83;;;6.70;99.90;;;;;;5033054;28;20094;-68
2022/12/21 01:03:24;;;;;;;129.15;27.98;;;6.70;99.90;;;;;;5030769;28;20077;-68
2022/12/21 01:05:51;;;;;;;196.43;31.38;;;6.60;99.90;;;;;;5031565;28;20037;-68
2022/12/21 01:08:19;;;;;;;359.85;48.40;;;6.60;99.90;;;;;;5031400;28;20103;-68
2022/12/21 01:10:45;;;;;;;443.83;53.97;;;6.60;99.90;;;;;;5032996;28;20050;-68
2022/12/21 01:13:12;;;;;;;396.40;46.10;;;6.50;99.90;;;;;;5032714;28;20117;-68
2022/12/21 01:15:42;;;;;;;345.73;41.88;;;6.50;99.90;;;;;;5031136;28;20045;-68
2022/12/21 01:18:11;;;;;;;270.27;33.40;;;6.50;99.90;;;;;;5032035;28;20508;-68
2022/12/21 01:20:44;;;;;;;313.25;41.88;;;6.40;99.90;;;;;;5032379;28;20081;-68
2022/12/21 01:23:10;;;;;;;112.50;24.45;;;6.30;99.90;;;;;;5032236;28;20124;-68
2022/12/21 01:25:36;;;;;;;267.83;36.08;;;6.30;99.90;;;;;;5032293;28;20125;-68
2022/12/21 01:28:02;;;;;;;425.33;51.45;;;6.30;99.90;;;;;;5031282;28;20792;-68
2022/12/21 01:30:28;;;;;;;397.98;47.05;;;6.30;99.90;;;;;;5014056;28;20041;-68
2022/12/21 01:32:54;;;;;;;406.73;50.50;;;6.30;99.90;;;;;;5031371;28;20051;-68
2022/12/21 01:35:20;;;;;;;457.98;54.03;;;6.30;99.90;;;;;;5014252;28;20058;-68
2022/12/21 01:37:46;;;;;;;307.67;43.78;;;6.20;99.90;;;;;;5014457;28;20144;-68
2022/12/21 01:40:12;;;;;;;297.25;39.05;;;6.20;99.90;;;;;;5030965;28;20695;-68
2022/12/21 01:42:38;;;;;;;306.23;38.63;;;6.20;99.90;;;;;;5030982;28;20478;-68
2022/12/21 01:45:28;;;;;;;336.67;42.55;;;6.10;99.90;;;;;;5031772;28;20053;-67
2022/12/21 01:48:00;;;;;;;392.75;47.33;;;6.10;99.90;;;;;;5023534;28;20049;-67
2022/12/21 01:50:50;;;;;;;406.77;50.15;;;6.00;99.90;;;;;;5032022;28;20104;-68
2022/12/21 01:53:21;;;;;;;200.20;29.92;;;6.00;99.90;;;;;;5031942;28;20371;-68
2022/12/21 01:55:50;;;;;;;378.70;46.38;;;5.90;99.90;;;;;;5030785;28;20099;-68
2022/12/21 01:58:18;;;;;;;257.48;36.97;;;5.90;99.90;;;;;;5031786;28;20037;-68
2022/12/21 02:00:44;;;;;;;320.90;40.40;;;5.90;99.90;;;;;;5030187;28;20054;-68
2022/12/21 02:03:15;;;;;;;321.52;39.88;;;5.90;99.90;;;;;;5031634;28;20049;-68
2022/12/21 02:05:46;;;;;;;300.10;35.85;;;5.90;99.90;;;;;;5032259;28;20076;-68
2022/12/21 02:08:12;;;;;;;304.45;39.47;;;5.80;99.90;;;;;;5030757;28;20044;-67
2022/12/21 02:10:38;;;;;;;239.70;32.50;;;5.80;99.90;;;;;;5031086;28;20375;-67
2022/12/21 02:13:06;;;;;;;283.92;36.67;;;5.80;99.90;;;;;;5031912;28;20486;-68
2022/12/21 02:16:03;;;;;;;234.40;32.95;;;5.70;99.90;;;;;;5030078;28;20037;-67
2022/12/21 02:18:37;;;;;;;235.10;33.58;;;5.70;99.90;;;;;;5013911;28;20052;-67
2022/12/21 02:21:21;;;;;;;254.07;33.55;;;5.70;99.90;;;;;;5030329;28;20478;-67
2022/12/21 02:24:02;;;;;;;233.88;35.80;;;5.70;99.90;;;;;;5030255;28;20413;-68
2022/12/21 02:26:59;;;;;;;234.18;34.95;;;5.70;99.90;;;;;;5030073;28;20529;-68
2022/12/21 02:29:34;;;;;;;185.30;28.58;;;5.70;99.90;;;;;;5031029;28;20041;-68
2022/12/21 02:32:42;;;;;;;233.85;32.42;;;5.70;99.90;;;;;;5030174;28;20390;-68
2022/12/21 02:35:41;;;;;;;338.00;41.50;;;5.70;99.90;;;;;;5029711;28;20406;-68
2022/12/21 02:38:21;;;;;;;301.80;37.28;;;5.70;99.90;;;;;;5031547;28;20072;-67
2022/12/21 02:41:34;;;;;;;343.85;45.22;;;5.60;99.90;;;;;;5029944;28;20048;-68
2022/12/21 02:44:18;;;;;;;308.92;37.05;;;5.60;99.90;;;;;;5009719;28;20049;-67
2022/12/21 02:47:10;;;;;;;429.70;51.03;;;5.60;99.90;;;;;;5031355;28;20045;-68
2022/12/21 02:50:02;;;;;;;303.55;38.78;;;5.50;99.90;;;;;;5029943;28;20065;-68
2022/12/21 02:52:31;;;;;;;336.25;41.85;;;5.50;99.90;;;;;;5031104;28;20168;-67
2022/12/21 02:54:59;;;;;;;261.00;34.40;;;5.60;99.90;;;;;;5031027;28;20042;-68
2022/12/21 02:57:37;;;;;;;295.27;38.53;;;5.50;99.90;;;;;;5029393;28;20052;-67
2022/12/21 03:00:16;;;;;;;331.38;40.65;;;5.60;99.90;;;;;;5029657;28;20522;-67
2022/12/21 03:03:47;;;;;;;318.85;40.78;;;5.70;99.90;;;;;;5045855;28;20094;-68
2022/12/21 03:05:48;;;;;;;320.92;42.58;;;5.70;99.90;;;;;;5029347;28;20049;-68
2022/12/21 03:08:49;;;;;;;306.65;39.50;;;5.80;99.90;;;;;;5029502;28;20064;-68
2022/12/21 03:11:15;;;;;;;291.52;40.25;;;5.80;99.90;;;;;;5005516;28;20090;-67
2022/12/21 03:14:08;;;;;;;263.85;37.28;;;5.80;99.90;;;;;;4988444;28;20050;-67
2022/12/21 03:16:50;;;;;;;398.77;48.72;;;5.80;99.90;;;;;;4972634;28;20116;-68
2022/12/21 03:19:52;;;;;;;260.58;38.95;;;5.80;99.90;;;;;;4988895;28;20050;-67
2022/12/21 03:22:41;;;;;;;205.02;31.33;;;5.80;99.90;;;;;;4972065;28;20079;-68
2022/12/21 03:25:33;;;;;;;350.00;44.60;;;5.80;99.90;;;;;;4988470;28;20050;-67
2022/12/21 03:28:04;;;;;;;405.13;53.45;;;5.80;99.90;;;;;;4955959;28;20589;-68
2022/12/21 03:30:32;;;;;;;;;;;5.80;99.90;;;;;;4988708;28;20071;-68
2022/12/21 03:33:02;;;;;;;290.95;39.65;;;5.80;99.90;;;;;;4988565;28;20774;-68
2022/12/21 03:35:31;;;;;;;283.33;40.55;;;5.80;99.90;;;;;;4988290;28;20046;-68
2022/12/21 03:38:01;;;;;;;258.15;36.83;;;5.80;99.90;;;;;;4988085;28;20093;-68
2022/12/21 03:40:32;;;;;;;362.50;45.75;;;5.80;99.90;;;;;;4971987;28;20092;-68
2022/12/21 03:43:09;;;;;;;229.23;31.05;;;5.80;99.90;;;;;;4987683;28;20034;-68
2022/12/21 03:45:47;;;;;;;208.18;29.52;;;5.80;99.90;;;;;;4988420;28;20452;-68
2022/12/21 03:48:23;;;;;;;307.48;36.25;;;5.80;99.90;;;;;;5018416;28;20053;-68
2022/12/21 03:50:53;;;;;;;360.60;42.80;;;5.80;99.90;;;;;;5029943;28;20044;-68
2022/12/21 03:53:24;;;;;;;253.13;33.85;;;5.80;99.90;;;;;;5030029;28;20481;-68
2022/12/21 03:55:53;;;;;;;363.88;45.45;;;5.80;99.90;;;;;;5028334;28;20042;-68
2022/12/21 03:58:19;;;;;;;277.88;34.17;;;5.80;99.90;;;;;;5030048;28;20126;-68
2022/12/21 04:01:08;;;;;;;273.70;39.60;;;5.80;99.90;;;;;;5028568;28;20056;-68
2022/12/21 04:03:38;;;;;;;145.63;24.95;;;5.80;99.90;;;;;;5029830;28;20142;-68
2022/12/21 04:06:17;;;;;;;334.30;42.00;;;5.90;99.90;;;;;;5028430;28;20136;-68
2022/12/21 04:08:43;;;;;;;335.25;45.28;;;5.90;99.90;;;;;;5030074;28;20351;-68
2022/12/21 04:12:36;;;;;;;287.98;38.30;;;5.90;99.90;;;;;;5028170;28;20044;-68
2022/12/21 04:13:59;;;;;;;284.48;40.33;;;5.90;99.90;;;;;;5028473;28;20117;-68
2022/12/21 04:16:26;;;;;;;336.80;45.28;;;6.00;99.90;;;;;;5028371;28;20050;-68
2022/12/21 04:21:36;;;;;;;222.90;35.83;;;6.00;99.90;;;;;;5028301;28;20064;-68
2022/12/21 04:29:30;;;;;;;318.25;47.42;;;6.00;99.90;;;;;;5028320;28;20042;-68
2022/12/21 04:31:56;;;;;;;310.08;43.75;;;5.90;99.90;;;;;;5029777;28;20045;-68
2022/12/21 04:34:22;;;;;;;269.75;39.30;;;5.90;99.90;;;;;;5031100;28;20069;-68
2022/12/21 04:39:31;;;;;;;234.43;34.97;;;5.90;99.90;;;;;;5032797;28;20057;-68
2022/12/21 04:41:57;;;;;;;406.38;48.25;;;5.90;99.90;;;;;;5032130;28;20048;-68
2022/12/21 04:44:23;;;;;;;261.38;35.90;;;5.90;99.90;;;;;;5032709;28;20128;-68
2022/12/21 04:46:49;;;;;;;375.67;50.55;;;5.90;99.90;;;;;;5032582;28;20130;-68
2022/12/21 04:49:15;;;;;;;370.98;49.67;;;5.90;99.90;;;;;;5031491;28;20485;-68
2022/12/21 04:51:41;;;;;;;248.38;36.67;;;5.80;99.90;;;;;;5030694;28;20581;-68
2022/12/21 04:54:06;;;;;;;247.43;38.13;;;5.80;99.90;;;;;;5031946;28;20036;-68
2022/12/21 04:56:32;;;;;;;329.83;44.20;;;5.70;99.90;;;;;;5032041;28;20399;-68
2022/12/21 04:58:58;;;;;;;276.17;39.72;;;5.70;99.90;;;;;;5031410;28;20096;-68
2022/12/21 05:01:24;;;;;;;369.58;46.60;;;5.70;99.90;;;;;;5030765;28;20045;-68
2022/12/21 05:03:51;;;;;;;275.52;38.00;;;5.70;99.90;;;;;;5030788;28;20049;-68
2022/12/21 05:06:18;;;;;;;312.85;43.38;;;5.70;99.90;;;;;;5030907;28;20393;-68
2022/12/21 05:08:45;;;;;;;221.23;34.97;;;5.60;99.90;;;;;;5030073;28;20575;-67
2022/12/21 05:11:20;;;;;;;258.98;38.42;;;5.60;99.90;;;;;;5030869;28;20076;-68
2022/12/21 05:13:49;;;;;;;221.90;35.83;;;5.50;99.90;;;;;;5031009;28;20045;-68
2022/12/21 05:16:21;;;;;;;263.73;36.53;;;5.50;99.90;;;;;;5031586;28;20556;-68
2022/12/21 05:18:48;;;;;;;267.17;40.03;;;5.50;99.90;;;;;;5030739;28;20056;-68
2022/12/21 05:21:14;;;;;;;311.15;47.13;;;5.40;99.90;;;;;;5030793;28;20041;-68
2022/12/21 05:23:40;;;;;;;204.35;34.17;;;5.40;99.90;;;;;;5030106;28;20053;-68
2022/12/21 05:26:08;;;;;;;301.60;43.75;;;5.40;99.90;;;;;;5031206;28;20091;-68
2022/12/21 05:28:34;;;;;;;238.00;36.50;;;5.40;99.90;;;;;;5032504;28;20076;-68
2022/12/21 05:31:02;;;;;;;356.25;49.03;;;5.40;99.90;;;;;;5030160;28;20038;-68
2022/12/21 05:33:27;;;;;;;245.80;39.60;;;5.30;99.90;;;;;;5031646;28;20045;-68
2022/12/21 05:35:53;;;;;;;248.98;40.50;;;5.30;99.90;;;;;;5029837;28;20403;-68
2022/12/21 05:38:19;;;;;;;247.55;39.03;;;5.30;99.90;;;;;;5029456;28;20049;-67
2022/12/21 05:40:49;;;;;;;217.18;37.38;;;5.30;99.90;;;;;;5031723;28;20118;-68
2022/12/21 05:43:15;;;;;;;232.23;36.65;;;5.30;99.90;;;;;;5031402;28;20053;-68
2022/12/21 05:45:42;;;;;;;247.90;39.47;;;5.30;99.90;;;;;;5029973;28;20044;-68
2022/12/21 05:48:07;;;;;;;277.92;41.83;;;5.20;99.90;;;;;;5030198;28;20037;-68
2022/12/21 05:50:33;;;;;;;192.52;36.20;;;5.20;99.90;;;;;;5030237;28;20037;-68
2022/12/21 05:52:59;;;;;;;185.88;35.40;;;5.30;99.90;;;;;;5029330;28;20042;-68
2022/12/21 05:55:25;;;;;;;236.70;40.53;;;5.20;99.90;;;;;;5029691;28;20037;-68
2022/12/21 05:57:51;;;;;;;268.42;43.80;;;5.20;99.90;;;;;;5031232;28;20042;-68
2022/12/21 06:00:17;;;;;;;302.15;45.40;;;5.20;99.90;;;;;;5031255;28;20096;-68
2022/12/21 06:02:42;;;;;;;213.55;38.47;;;5.20;99.90;;;;;;5031168;28;20042;-68
2022/12/21 06:05:09;;;;;;;264.67;42.33;;;5.10;99.90;;;;;;5030690;28;20200;-68
2022/12/21 06:07:35;;;;;;;243.60;38.97;;;5.10;99.90;;;;;;5029042;28;20045;-68
2022/12/21 06:10:00;;;;;;;306.65;44.42;;;5.10;99.90;;;;;;5029423;28;20489;-68
2022/12/21 06:12:29;;;;;;;265.85;40.40;;;5.10;99.90;;;;;;5029360;28;20102;-68
2022/12/21 06:14:55;;;;;;;282.75;43.58;;;5.10;99.90;;;;;;5029260;28;20490;-68
2022/12/21 06:17:21;;;;;;;311.48;45.17;;;5.10;99.90;;;;;;5030877;28;20090;-68
2022/12/21 06:19:47;;;;;;;319.73;46.55;;;5.10;99.90;;;;;;5029272;28;20049;-68
2022/12/21 06:22:12;;;;;;;267.40;42.20;;;5.20;99.90;;;;;;5029235;28;20048;-68
2022/12/21 06:24:38;;;;;;;289.20;46.33;;;5.10;99.90;;;;;;5030654;28;20037;-68
2022/12/21 06:27:04;;;;;;;291.83;44.45;;;5.10;99.90;;;;;;5030426;28;20095;-68
2022/12/21 06:29:30;;;;;;;317.17;47.22;;;5.20;99.90;;;;;;5029430;28;20120;-68
2022/12/21 06:31:56;;;;;;;326.38;45.60;;;5.10;99.90;;;;;;5029194;28;20231;-68
2022/12/21 06:34:22;;;;;;;357.95;50.22;;;5.20;99.90;;;;;;5030443;28;20041;-68
2022/12/21 06:36:47;;;;;;;309.33;46.53;;;5.20;99.90;;;;;;5028387;28;20064;-68
2022/12/21 06:39:13;;;;;;;371.63;53.35;;;5.20;99.90;;;;;;5029135;28;20049;-68
2022/12/21 06:41:39;;;;;;;372.58;54.78;;;5.20;99.90;;;;;;5030372;28;20405;-68
2022/12/21 06:44:05;;;;;;;306.85;46.33;;;5.30;99.90;;;;;;5025956;28;20037;-68
2022/12/21 06:46:30;;;;;;;304.70;48.20;;;5.30;99.90;;;;;;5028431;28;20051;-68
2022/12/21 06:48:56;;;;;;;297.90;47.47;;;5.30;99.90;;;;;;5030095;28;20042;-68
2022/12/21 06:51:23;;;;;;;301.27;46.03;;;5.30;99.90;;;;;;5029026;28;20096;-68
2022/12/21 06:53:51;;;;;;;319.90;47.20;;;5.40;99.90;;;;;;5030093;28;20037;-68
2022/12/21 06:56:19;;;;;;;227.82;38.95;;;5.40;99.90;;;;;;5029582;28;20045;-68
2022/12/21 06:58:46;;;;;;;292.88;44.58;;;5.40;99.90;;;;;;5029942;28;20045;-68
2022/12/21 07:01:18;;;;;;;277.52;45.17;;;5.40;99.90;;;;;;5028380;28;20038;-68
2022/12/21 07:03:44;;;;;;;297.55;48.08;;;5.40;99.90;;;;;;5028287;28;20076;-68
2022/12/21 07:06:11;;;;;;;306.77;48.80;;;5.40;99.90;;;;;;5027803;28;20044;-68
2022/12/21 07:08:37;;;;;;;375.80;52.42;;;5.40;99.90;;;;;;5029752;28;20398;-68
2022/12/21 07:11:06;;;;;;;219.98;41.10;;;5.40;99.90;;;;;;5029381;28;20034;-68
2022/12/21 07:13:35;;;;;;;365.25;53.95;;;5.40;99.90;;;;;;5029300;28;20041;-68
2022/12/21 07:16:00;;;;;;;318.60;50.33;;;5.40;99.90;;;;;;5028579;28;20405;-68
2022/12/21 07:18:26;;;;;;;347.30;52.90;;;5.40;99.90;;;;;;5011069;28;20188;-67
2022/12/21 07:20:57;;;;;;;362.05;56.63;;;5.40;99.90;;;;;;5027978;28;20049;-68
2022/12/21 07:23:26;;;;;;;348.42;54.92;;;5.40;99.90;;;;;;5029449;28;20099;-68
2022/12/21 07:25:53;;;;;;;410.70;58.50;;;5.40;99.90;;;;;;5028128;28;20375;-68
2022/12/21 07:28:22;;;;;;;310.23;49.40;;;5.40;99.90;;;;;;5027857;28;20517;-68
2022/12/21 07:30:49;;;;;;;359.13;57.63;;;5.50;99.90;;;;;;5028970;28;20568;-68
2022/12/21 07:33:18;;;;;;;402.75;63.15;;;5.50;99.90;;;;;;5028753;28;20091;-68
2022/12/21 07:35:45;;;;;;;332.08;54.30;;;5.50;99.90;;;;;;5027663;28;20118;-68
2022/12/21 07:38:11;;;;;;;366.75;59.75;;;5.50;99.90;;;;;;5027565;28;20045;-68
2022/12/21 07:40:38;;;;;;;350.00;57.53;;;5.60;99.90;;;;;;5029014;28;20084;-68
2022/12/21 07:43:11;;;;;;;366.48;62.95;;;5.60;99.90;;;;;;5028754;28;20038;-68
2022/12/21 07:45:37;;;;;;;325.23;55.38;;;5.60;99.90;;;;;;5028990;28;20107;-68
2022/12/21 07:48:04;;;;;;;380.70;62.40;;;5.60;99.90;;;;;;5028534;28;20103;-68
2022/12/21 07:50:29;;;;;;;299.17;53.03;;;5.60;99.90;;;;;;5027529;28;20494;-68
2022/12/21 07:52:58;;;;;;;352.58;64.47;;;5.50;99.90;;;;;;5027600;28;20037;-67
2022/12/21 07:55:25;;;;;;;342.83;59.25;;;5.50;99.90;;;;;;5028852;28;20448;-68
2022/12/21 07:57:51;;;;;;;312.92;56.08;;;5.50;99.90;;;;;;5027233;28;20041;-68
2022/12/21 08:00:18;;;;;;;314.85;56.40;;;5.50;99.90;;;;;;5027469;28;20079;-68
2022/12/21 08:02:44;;;;;;;216.50;46.72;;;5.50;99.90;;;;;;5028481;28;20045;-68
2022/12/21 08:05:10;;;;;;;271.92;54.25;;;5.50;99.90;;;;;;5027059;28;20272;-68
2022/12/21 08:07:35;;;;;;;250.23;55.63;;;5.50;99.90;;;;;;5027501;28;20041;-68
2022/12/21 08:10:01;;;;;;;332.67;61.30;;;5.50;99.90;;;;;;5026460;28;20037;-68
2022/12/21 08:12:29;;;;;;;315.08;57.38;;;5.50;99.90;;;;;;5027477;28;20045;-68
2022/12/21 08:14:54;;;;;;;349.30;61.70;;;5.50;99.90;;;;;;5027169;28;20045;-68
2022/12/21 08:17:20;;;;;;;322.30;53.40;;;5.60;99.90;;;;;;5027883;28;20044;-68
2022/12/21 08:19:46;;;;;;;396.30;63.38;;;5.60;99.90;;;;;;5028345;28;20041;-67
2022/12/21 08:22:12;;;;;;;363.15;62.55;;;5.60;99.90;;;;;;5027117;28;20042;-67
2022/12/21 08:24:37;;;;;;;429.70;65.13;;;5.60;99.90;;;;;;5028853;28;20508;-67
2022/12/21 08:27:03;;;;;;;328.83;56.80;;;5.70;99.90;;;;;;5028569;28;20044;-67
2022/12/21 08:29:29;;;;;;;358.55;62.28;;;5.70;99.90;;;;;;5027018;28;20077;-68
2022/12/21 08:31:55;;;;;;;391.65;65.38;;;5.80;99.90;;;;;;5026677;28;20052;-68
2022/12/21 08:34:21;;;;;;;518.63;84.15;;;5.80;99.90;;;;;;5028460;28;20038;-68
2022/12/21 08:36:47;;;;;;;371.85;64.65;;;5.80;99.90;;;;;;5026822;28;20502;-68
2022/12/21 08:39:12;;;;;;;523.90;87.78;;;5.90;99.90;;;;;;5010623;28;20127;-68
2022/12/21 08:41:38;;;;;;;590.80;96.63;;;6.00;99.90;;;;;;5028466;28;20402;-68
2022/12/21 08:44:04;;;;;;;441.13;73.82;;;6.00;99.90;;;;;;5043704;28;20053;-68
2022/12/21 08:46:30;;;;;;;362.02;61.83;;;6.00;99.90;;;;;;5027200;28;20705;-68
2022/12/21 08:48:56;;;;;;;423.65;70.30;;;6.10;99.90;;;;;;5029342;28;20097;-68
2022/12/21 08:51:22;;;;;;;344.52;64.25;;;6.20;99.90;;;;;;5037333;28;20046;-67
2022/12/21 08:53:48;;;;;;;345.15;59.47;;;6.20;99.90;;;;;;5027985;28;20493;-68
2022/12/21 08:56:14;;;;;;;283.50;51.40;;;6.30;99.90;;;;;;5028136;28;20107;-69
2022/12/21 08:58:40;;;;;;;393.88;64.80;;;6.30;99.90;;;;;;5029025;28;20041;-68
2022/12/21 09:01:05;;;;;;;315.60;60.65;;;6.30;99.90;;;;;;5027635;28;20041;-69
2022/12/21 09:03:31;;;;;;;424.85;70.38;;;6.30;99.90;;;;;;5029428;28;20422;-69
2022/12/21 09:05:59;;;;;;;340.60;58.47;;;6.30;99.90;;;;;;5027656;28;20038;-68
2022/12/21 09:08:25;;;;;;;191.93;41.60;;;6.30;99.90;;;;;;5029032;28;20117;-68
2022/12/21 09:11:01;;;;;;;280.83;49.17;;;6.40;99.90;;;;;;5028951;28;20033;-69
2022/12/21 09:13:27;;;;;;;270.42;43.40;;;6.40;99.90;;;;;;5028730;28;20045;-69
2022/12/21 09:15:53;;;;;;;267.95;47.80;;;6.40;99.90;;;;;;5027302;28;20037;-68
2022/12/21 09:18:19;;;;;;;256.00;45.92;;;6.40;99.90;;;;;;5029050;28;20037;-67
2022/12/21 09:20:45;;;;;;;295.40;51.10;;;6.40;99.90;;;;;;5028439;28;20072;-68
2022/12/21 09:23:11;;;;;;;300.23;47.30;;;6.40;99.90;;;;;;5031198;28;20037;-68
2022/12/21 09:25:37;;;;;;;303.27;47.83;;;6.40;99.90;;;;;;5030287;28;20045;-68
2022/12/21 09:28:03;;;;;;;398.98;57.58;;;6.40;99.90;;;;;;5031326;28;20532;-68
2022/12/21 09:30:29;;;;;;;266.30;45.92;;;6.40;99.90;;;;;;5029629;28;20046;-68
2022/12/21 09:32:56;;;;;;;251.00;41.65;;;6.50;99.90;;;;;;5031596;28;20056;-67
2022/12/21 09:35:22;;;;;;;199.10;37.55;;;6.50;99.90;;;;;;5029595;28;20417;-67
2022/12/21 09:37:47;;;;;;;237.95;39.85;;;6.50;99.90;;;;;;5030459;28;20238;-67
2022/12/21 09:40:17;;;;;;;267.67;47.85;;;6.60;99.90;;;;;;5030841;28;20049;-68
2022/12/21 09:43:15;;;;;;;175.15;36.55;;;6.60;99.90;;;;;;5031115;28;20057;-67
2022/12/21 09:45:53;;;;;;;198.55;36.90;;;6.70;99.90;;;;;;5013995;28;20440;-67
2022/12/21 09:48:28;;;;;;;212.23;36.60;;;6.70;99.90;;;;;;5032114;28;20652;-67
2022/12/21 09:51:20;;;;;;;199.18;33.33;;;6.70;99.90;;;;;;5029720;28;20038;-67
2022/12/21 09:54:07;;;;;;;219.93;38.90;;;6.80;99.90;;;;;;5024637;28;20501;-67
2022/12/21 09:56:39;;;;;;;172.32;36.33;;;6.90;99.90;;;;;;5031514;28;20067;-67
2022/12/21 09:59:10;;;;;;;150.35;26.95;;;6.90;99.90;;;;;;5028914;28;20045;-68
2022/12/21 10:01:56;;;;;;;123.22;27.42;;;6.90;99.90;;;;;;5029946;28;20063;-67
2022/12/21 10:04:47;;;;;;;123.13;31.45;;;7.00;99.90;;;;;;5031658;28;20041;-67
2022/12/21 10:07:28;;;;;;;;;;;7.00;99.90;;;;;;5030593;28;20037;-67
2022/12/21 10:10:02;;;;;;;79.43;25.90;;;7.10;99.90;;;;;;5029391;28;19917;-67
2022/12/21 10:12:47;;;;;;;99.88;28.77;;;7.10;99.90;;;;;;5029281;28;20569;-67
2022/12/21 10:15:28;;;;;;;96.57;27.25;;;7.20;99.90;;;;;;5029752;28;20183;-67
2022/12/21 10:18:03;;;;;;;99.90;28.05;;;7.20;99.90;;;;;;5029932;28;20557;-67
2022/12/21 10:20:32;;;;;;;87.80;26.45;;;7.20;99.90;;;;;;5029635;28;20049;-66
2022/12/21 10:23:02;;;;;;;84.93;25.13;;;7.30;99.90;;;;;;5031227;28;20053;-67
2022/12/21 10:25:42;;;;;;;85.47;26.33;;;7.40;99.90;;;;;;5029799;28;20060;-67
2022/12/21 10:28:14;;;;;;;78.07;24.73;;;7.50;99.90;;;;;;5029425;28;20119;-66
2022/12/21 10:30:47;;;;;;;62.15;20.83;;;7.70;99.90;;;;;;5029711;28;20084;-66
2022/12/21 10:33:13;;;;;;;96.13;31.65;;;8.10;99.90;;;;;;5028556;28;20071;-67
2022/12/21 10:35:39;;;;;;;66.32;25.15;;;8.40;99.90;;;;;;5012859;28;20103;-67
2022/12/21 10:38:17;;;;;;;57.65;23.67;;;8.60;99.90;;;;;;5029440;28;20128;-67
2022/12/21 10:40:51;;;;;;;57.65;23.17;;;8.90;99.90;;;;;;5029548;28;20037;-68
2022/12/21 10:43:17;;;;;;;37.15;15.80;;;9.30;99.90;;;;;;5028951;28;20037;-66
2022/12/21 10:45:43;;;;;;;42.28;18.17;;;9.80;99.90;;;;;;5046064;28;20401;-66
2022/12/21 10:48:11;;;;;;;38.33;15.75;;;9.90;99.90;;;;;;5030413;28;20099;-66
2022/12/21 10:50:49;;;;;;;38.95;16.38;;;10.20;99.90;;;;;;5033998;28;20138;-67
2022/12/21 10:53:26;;;;;;;34.95;15.32;;;10.30;99.90;;;;;;5030396;28;20038;-67
2022/12/21 10:55:58;;;;;;;42.72;20.40;;;10.50;99.90;;;;;;5030419;28;20117;-67
2022/12/21 10:58:34;;;;;;;32.35;17.02;;;10.60;99.90;;;;;;5029156;28;20037;-66
2022/12/21 11:01:16;;;;;;;39.70;19.60;;;10.80;99.90;;;;;;5028851;28;20519;-67
2022/12/21 11:04:21;;;;;;;35.90;18.05;;;11.10;99.90;;;;;;5028479;28;20041;-66
2022/12/21 11:07:16;;;;;;;34.38;17.77;;;11.40;99.90;;;;;;5030107;28;20459;-67
2022/12/21 11:09:42;;;;;;;38.75;19.77;;;11.90;99.90;;;;;;5028268;28;20042;-67
2022/12/21 11:12:28;;;;;;;34.22;17.60;;;12.20;99.90;;;;;;5029720;28;20082;-66
2022/12/21 11:14:55;;;;;;;29.02;15.38;;;12.60;99.90;;;;;;5029896;28;20049;-67
2022/12/21 11:17:25;;;;;;;32.05;18.27;;;12.70;99.90;;;;;;5028770;28;20041;-68
2022/12/21 11:19:59;;;;;;;;;;;12.90;99.90;;;;;;5030619;28;20045;-67
2022/12/21 11:22:29;;;;;;;25.80;13.75;;;13.00;99.90;;;;;;5028609;28;19928;-68
2022/12/21 11:24:58;;;;;;;33.67;17.63;;;13.20;99.90;;;;;;5028163;28;20053;-67
2022/12/21 11:27:31;;;;;;;31.47;16.53;;;13.30;99.90;;;;;;5029764;28;20044;-67
2022/12/21 11:30:04;;;;;;;33.20;16.13;;;13.40;99.90;;;;;;5030327;28;20280;-67
2022/12/21 11:32:30;;;;;;;28.42;15.95;;;13.40;99.90;;;;;;5029727;28;20609;-68
2022/12/21 11:35:02;;;;;;;32.92;17.73;;;13.30;99.90;;;;;;5011741;28;20093;-67
2022/12/21 11:38:08;;;;;;;30.02;16.15;;;13.10;99.90;;;;;;5012169;28;20060;-68
2022/12/21 11:40:34;;;;;;;32.92;15.95;;;13.00;99.90;;;;;;5025723;28;20391;-68
2022/12/21 11:43:00;;;;;;;33.63;16.70;;;12.90;99.90;;;;;;5028821;28;20049;-68
2022/12/21 11:45:40;;;;;;;35.05;18.00;;;12.90;99.90;;;;;;5027872;28;20045;-68
2022/12/21 11:48:49;;;;;;;38.42;15.48;;;12.70;99.90;;;;;;5029526;28;20120;-68
2022/12/21 11:51:21;;;;;;;35.70;17.65;;;12.30;99.90;;;;;;5028158;28;20389;-67
2022/12/21 11:54:09;;;;;;;32.08;17.13;;;11.70;99.90;;;;;;5029569;28;20060;-67
2022/12/21 11:57:12;;;;;;;41.65;18.08;;;11.30;99.90;;;;;;5028485;28;20846;-67
2022/12/21 11:59:59;;;;;;;31.02;15.82;;;11.30;99.90;;;;;;5029883;28;20366;-67
2022/12/21 12:02:54;;;;;;;34.20;17.23;;;11.40;99.90;;;;;;5028206;28;20504;-67
2022/12/21 12:05:44;;;;;;;30.50;16.52;;;11.30;99.90;;;;;;5027832;28;20128;-67
2022/12/21 12:08:20;;;;;;;;;;;11.20;99.90;;;;;;5030198;28;20045;-67
2022/12/21 12:11:11;;;;;;;32.45;17.80;;;11.30;99.90;;;;;;5010923;28;19917;-67
2022/12/21 12:14:09;;;;;;;36.63;19.10;;;11.30;99.90;;;;;;5027588;28;20045;-67
2022/12/21 12:17:02;;;;;;;32.63;17.30;;;11.40;99.90;;;;;;5027660;28;20072;-67
2022/12/21 12:20:00;;;;;;;32.50;16.98;;;11.30;99.90;;;;;;5026999;28;20858;-67
2022/12/21 12:22:42;;;;;;;31.42;17.75;;;11.10;99.90;;;;;;5026968;28;20490;-67
2022/12/21 12:25:18;;;;;;;39.20;19.63;;;10.90;99.90;;;;;;5026535;28;20564;-67
2022/12/21 12:28:04;;;;;;;31.08;17.67;;;10.70;99.90;;;;;;5027332;28;20080;-67
2022/12/21 12:30:47;;;;;;;30.35;16.83;;;10.60;99.90;;;;;;5027121;28;20095;-68
2022/12/21 12:33:34;;;;;;;35.30;17.98;;;10.40;99.90;;;;;;5027181;28;20127;-67
2022/12/21 12:36:13;;;;;;;29.90;16.92;;;10.20;99.90;;;;;;5026882;28;20123;-67
2022/12/21 12:39:21;;;;;;;30.52;17.95;;;10.10;99.90;;;;;;5027899;28;20111;-67
2022/12/21 12:42:06;;;;;;;33.38;18.17;;;9.90;99.90;;;;;;5028160;28;20076;-67
2022/12/21 12:44:54;;;;;;;28.80;16.30;;;9.70;99.90;;;;;;5027012;28;20128;-67
2022/12/21 12:47:33;;;;;;;30.75;16.67;;;9.60;99.90;;;;;;5027138;28;20049;-67
2022/12/21 12:50:14;;;;;;;31.48;17.65;;;9.50;99.90;;;;;;5027586;28;20053;-67
2022/12/21 12:52:52;;;;;;;36.85;18.08;;;9.40;99.90;;;;;;5027092;28;20052;-67
2022/12/21 12:55:33;;;;;;;28.77;16.95;;;9.30;99.90;;;;;;5029083;28;20087;-67
2022/12/21 12:58:17;;;;;;;31.67;17.83;;;9.40;99.90;;;;;;5031283;28;20049;-67
2022/12/21 13:01:14;;;;;;;24.88;14.68;;;9.50;99.90;;;;;;5032910;28;20095;-67
2022/12/21 13:03:43;;;;;;;27.95;16.48;;;9.50;99.90;;;;;;5033869;28;20053;-67
2022/12/21 13:06:11;;;;;;;28.45;16.23;;;9.50;99.90;;;;;;5031337;28;20442;-67